createdAt,value
2018-09-27T00:00:10.573Z,102247.20
2018-09-27T00:01:14.055Z,102252.69
2018-09-27T00:02:17.471Z,102245.02
2018-09-27T00:03:20.908Z,102243.09
2018-09-27T00:04:24.416Z,102238.70
2018-09-27T00:05:27.872Z,102237.88
2018-09-27T00:06:31.287Z,102238.70
2018-09-27T00:07:34.691Z,102242.00
2018-09-27T00:08:38.241Z,102237.88
2018-09-27T00:09:41.859Z,102231.31
2018-09-27T00:10:45.308Z,102234.59
2018-09-27T00:11:48.740Z,102233.23
2018-09-27T00:12:52.161Z,102237.88
2018-09-27T00:13:55.606Z,102229.66
2018-09-27T00:14:59.026Z,102235.97
2018-09-27T00:16:02.454Z,102234.32
2018-09-27T00:17:05.925Z,102235.97
2018-09-27T00:18:09.385Z,102231.03
2018-09-27T00:19:12.863Z,102235.14
2018-09-27T00:20:16.283Z,102237.06
2018-09-27T00:21:19.741Z,102234.59
2018-09-27T00:22:23.181Z,102239.80
2018-09-27T00:23:26.594Z,102234.87
2018-09-27T00:24:30.024Z,102237.88
2018-09-27T00:25:33.477Z,102235.14
2018-09-27T00:26:36.961Z,102231.58
2018-09-27T00:27:40.367Z,102229.38
2018-09-27T00:28:43.806Z,102228.02
2018-09-27T00:29:47.233Z,102227.47
2018-09-27T00:30:50.739Z,102226.09
2018-09-27T00:31:54.269Z,102234.87
2018-09-27T00:32:57.717Z,102225.82
2018-09-27T00:34:01.128Z,102228.84
2018-09-27T00:35:04.841Z,102229.38
2018-09-27T00:36:08.349Z,102227.19
2018-09-27T00:37:11.847Z,102228.02
2018-09-27T00:38:15.280Z,102234.04
2018-09-27T00:39:18.895Z,102233.50
2018-09-27T00:40:22.330Z,102233.50
2018-09-27T00:41:25.806Z,102233.77
2018-09-27T00:42:29.269Z,102229.38
2018-09-27T00:43:32.690Z,102227.73
2018-09-27T00:44:36.133Z,102219.80
2018-09-27T00:45:42.771Z,102218.97
2018-09-27T00:46:46.226Z,102223.08
2018-09-27T00:47:49.709Z,102221.43
2018-09-27T00:48:53.153Z,102218.14
2018-09-27T00:49:56.597Z,102228.02
2018-09-27T00:51:00.052Z,102225.00
2018-09-27T00:52:03.466Z,102225.27
2018-09-27T00:53:07.013Z,102218.14
2018-09-27T00:54:10.446Z,102212.66
2018-09-27T00:55:13.906Z,102215.41
2018-09-27T00:56:17.336Z,102212.66
2018-09-27T00:57:20.805Z,102218.14
2018-09-27T00:58:24.300Z,102218.14
2018-09-27T00:59:27.745Z,102218.14
2018-09-27T01:00:31.175Z,102222.26
2018-09-27T01:01:34.647Z,102215.41
2018-09-27T01:02:38.088Z,102213.21
2018-09-27T01:03:41.614Z,102215.41
2018-09-27T01:04:45.071Z,102206.36
2018-09-27T01:05:48.491Z,102211.02
2018-09-27T01:06:52.127Z,102209.10
2018-09-27T01:07:55.565Z,102215.41
2018-09-27T01:08:58.969Z,102217.32
2018-09-27T01:10:02.461Z,102217.87
2018-09-27T01:11:05.958Z,102217.87
2018-09-27T01:12:09.366Z,102213.76
2018-09-27T01:13:12.856Z,102211.02
2018-09-27T01:14:16.537Z,102212.39
2018-09-27T01:15:19.949Z,102204.71
2018-09-27T01:16:23.542Z,102206.91
2018-09-27T01:17:26.992Z,102203.89
2018-09-27T01:18:30.429Z,102209.64
2018-09-27T01:19:33.917Z,102207.73
2018-09-27T01:20:37.438Z,102202.80
2018-09-27T01:21:40.950Z,102208.27
2018-09-27T01:22:44.413Z,102209.10
2018-09-27T01:23:47.849Z,102213.76
2018-09-27T01:24:51.283Z,102214.02
2018-09-27T01:25:54.751Z,102212.94
2018-09-27T01:26:58.161Z,102214.02
2018-09-27T01:28:01.588Z,102214.30
2018-09-27T01:29:05.012Z,102214.30
2018-09-27T01:30:09.083Z,102211.02
2018-09-27T01:31:12.629Z,102206.63
2018-09-27T01:32:16.135Z,102207.72
2018-09-27T01:33:19.618Z,102203.61
2018-09-27T01:34:23.047Z,102209.64
2018-09-27T01:35:26.453Z,102206.08
2018-09-27T01:36:29.893Z,102211.02
2018-09-27T01:37:33.332Z,102204.98
2018-09-27T01:38:36.735Z,102207.17
2018-09-27T01:39:40.609Z,102203.61
2018-09-27T01:40:44.260Z,102201.42
2018-09-27T01:41:47.960Z,102199.50
2018-09-27T01:42:51.428Z,102195.94
2018-09-27T01:43:54.922Z,102192.65
2018-09-27T01:44:58.386Z,102196.77
2018-09-27T01:46:01.941Z,102191.28
2018-09-27T01:47:05.390Z,102191.28
2018-09-27T01:48:08.852Z,102195.11
2018-09-27T01:49:12.388Z,102189.63
2018-09-27T01:50:28.063Z,102189.63
2018-09-27T01:51:31.466Z,102193.48
2018-09-27T01:52:34.895Z,102188.78
2018-09-27T01:53:38.327Z,102187.95
2018-09-27T01:54:41.798Z,102188.27
2018-09-27T01:55:45.240Z,102190.45
2018-09-27T01:56:48.728Z,102191.52
2018-09-27T01:57:52.165Z,102191.00
2018-09-27T01:58:55.586Z,102186.04
2018-09-27T01:59:59.070Z,102185.52
2018-09-27T02:01:02.546Z,102186.04
2018-09-27T02:02:06.050Z,102180.28
2018-09-27T02:03:09.488Z,102179.73
2018-09-27T02:04:13.071Z,102175.63
2018-09-27T02:05:16.535Z,102176.17
2018-09-27T02:06:19.954Z,102170.69
2018-09-27T02:07:23.567Z,102169.32
2018-09-27T02:08:27.045Z,102172.34
2018-09-27T02:09:30.594Z,102177.00
2018-09-27T02:10:34.818Z,102177.81
2018-09-27T02:11:38.489Z,102185.76
2018-09-27T02:12:42.208Z,102183.84
2018-09-27T02:13:45.613Z,102183.02
2018-09-27T02:14:49.008Z,102184.39
2018-09-27T02:15:52.472Z,102179.73
2018-09-27T02:16:55.878Z,102179.19
2018-09-27T02:17:59.319Z,102179.45
2018-09-27T02:19:02.884Z,102183.84
2018-09-27T02:20:06.425Z,102176.72
2018-09-27T02:21:09.883Z,102176.17
2018-09-27T02:22:13.852Z,102181.66
2018-09-27T02:23:17.430Z,102178.91
2018-09-27T02:24:20.903Z,102174.52
2018-09-27T02:25:27.062Z,102177.27
2018-09-27T02:26:30.618Z,102178.09
2018-09-27T02:27:34.514Z,102173.98
2018-09-27T02:28:38.050Z,102163.56
2018-09-27T02:29:41.643Z,102167.12
2018-09-27T02:30:45.143Z,102173.16
2018-09-27T02:31:48.621Z,102172.33
2018-09-27T02:32:52.058Z,102175.06
2018-09-27T02:33:55.477Z,102178.09
2018-09-27T02:34:58.892Z,102178.36
2018-09-27T02:36:02.379Z,102177.81
2018-09-27T02:37:05.811Z,102175.06
2018-09-27T02:38:09.223Z,102173.70
2018-09-27T02:39:12.722Z,102171.78
2018-09-27T02:40:16.270Z,102171.50
2018-09-27T02:41:19.713Z,102177.81
2018-09-27T02:42:23.155Z,102170.96
2018-09-27T02:43:26.658Z,102169.05
2018-09-27T02:44:30.204Z,102172.05
2018-09-27T02:45:33.678Z,102163.28
2018-09-27T02:46:37.079Z,102170.14
2018-09-27T02:47:40.692Z,102170.96
2018-09-27T02:48:44.172Z,102169.31
2018-09-27T02:49:47.572Z,102170.96
2018-09-27T02:50:51.005Z,102166.84
2018-09-27T02:51:54.438Z,102166.58
2018-09-27T02:52:57.930Z,102165.48
2018-09-27T02:54:01.589Z,102170.14
2018-09-27T02:55:05.072Z,102166.58
2018-09-27T02:56:08.557Z,102163.28
2018-09-27T02:57:12.031Z,102161.09
2018-09-27T02:58:15.451Z,102160.55
2018-09-27T02:59:18.859Z,102158.08
2018-09-27T03:00:22.344Z,102162.46
2018-09-27T03:01:25.773Z,102162.46
2018-09-27T03:02:29.261Z,102160.27
2018-09-27T03:03:32.694Z,102163.55
2018-09-27T03:04:36.111Z,102159.72
2018-09-27T03:05:39.565Z,102157.25
2018-09-27T03:06:43.027Z,102157.53
2018-09-27T03:07:46.559Z,102163.83
2018-09-27T03:08:50.118Z,102156.43
2018-09-27T03:09:53.512Z,102160.81
2018-09-27T03:10:56.939Z,102161.63
2018-09-27T03:12:00.467Z,102157.53
2018-09-27T03:13:04.076Z,102156.70
2018-09-27T03:14:07.596Z,102160.81
2018-09-27T03:15:11.042Z,102152.59
2018-09-27T03:16:14.484Z,102150.12
2018-09-27T03:17:17.893Z,102144.38
2018-09-27T03:18:21.926Z,102141.36
2018-09-27T03:19:25.448Z,102139.71
2018-09-27T03:20:28.876Z,102135.61
2018-09-27T03:21:32.329Z,102136.97
2018-09-27T03:22:35.762Z,102138.08
2018-09-27T03:23:40.870Z,102133.69
2018-09-27T03:24:44.618Z,102135.05
2018-09-27T03:25:48.014Z,102133.69
2018-09-27T03:26:51.458Z,102128.75
2018-09-27T03:27:54.958Z,102130.12
2018-09-27T03:28:58.402Z,102123.82
2018-09-27T03:30:02.317Z,102130.67
2018-09-27T03:31:06.022Z,102124.64
2018-09-27T03:32:09.445Z,102126.02
2018-09-27T03:33:12.911Z,102125.73
2018-09-27T03:34:16.385Z,102117.52
2018-09-27T03:35:19.933Z,102121.63
2018-09-27T03:36:23.434Z,102124.37
2018-09-27T03:37:26.876Z,102113.41
2018-09-27T03:38:30.341Z,102119.44
2018-09-27T03:39:33.918Z,102118.89
2018-09-27T03:40:37.384Z,102120.80
2018-09-27T03:41:40.841Z,102117.52
2018-09-27T03:42:44.458Z,102111.49
2018-09-27T03:43:48.002Z,102113.95
2018-09-27T03:44:51.513Z,102109.84
2018-09-27T03:45:54.939Z,102111.22
2018-09-27T03:46:58.374Z,102107.92
2018-09-27T03:48:01.860Z,102109.02
2018-09-27T03:49:05.499Z,102106.56
2018-09-27T03:50:09.152Z,102102.17
2018-09-27T03:51:12.583Z,102105.73
2018-09-27T03:52:16.095Z,102102.72
2018-09-27T03:53:19.507Z,102102.17
2018-09-27T03:54:23.049Z,102099.98
2018-09-27T03:55:26.489Z,102105.19
2018-09-27T03:56:30.900Z,102099.44
2018-09-27T03:57:34.310Z,102098.06
2018-09-27T03:58:37.713Z,102092.58
2018-09-27T03:59:41.136Z,102095.05
2018-09-27T04:00:44.580Z,102096.42
2018-09-27T04:01:48.050Z,102094.50
2018-09-27T04:02:51.528Z,102086.83
2018-09-27T04:03:54.948Z,102089.56
2018-09-27T04:04:58.367Z,102088.20
2018-09-27T04:06:01.888Z,102082.45
2018-09-27T04:07:05.380Z,102090.94
2018-09-27T04:08:08.940Z,102079.16
2018-09-27T04:09:12.381Z,102085.19
2018-09-27T04:10:15.892Z,102082.45
2018-09-27T04:11:19.377Z,102090.94
2018-09-27T04:12:23.034Z,102088.20
2018-09-27T04:13:26.443Z,102089.56
2018-09-27T04:14:29.882Z,102089.56
2018-09-27T04:15:33.343Z,102088.20
2018-09-27T04:16:36.987Z,102085.46
2018-09-27T04:17:40.493Z,102084.64
2018-09-27T04:18:44.090Z,102081.08
2018-09-27T04:19:47.593Z,102088.20
2018-09-27T04:20:52.243Z,102080.80
2018-09-27T04:21:55.755Z,102081.08
2018-09-27T04:22:59.184Z,102087.64
2018-09-27T04:24:02.659Z,102082.98
2018-09-27T04:25:06.256Z,102083.81
2018-09-27T04:26:09.667Z,102082.45
2018-09-27T04:27:13.709Z,102084.36
2018-09-27T04:28:17.150Z,102083.81
2018-09-27T04:29:20.585Z,102087.92
2018-09-27T04:30:24.080Z,102088.47
2018-09-27T04:31:27.519Z,102084.91
2018-09-27T04:32:31.042Z,102087.64
2018-09-27T04:33:34.618Z,102090.11
2018-09-27T04:34:38.074Z,102091.48
2018-09-27T04:35:41.589Z,102089.02
2018-09-27T04:36:45.298Z,102083.27
2018-09-27T04:37:48.763Z,102088.19
2018-09-27T04:38:52.203Z,102089.02
2018-09-27T04:39:55.801Z,102091.76
2018-09-27T04:40:59.229Z,102094.22
2018-09-27T04:42:02.671Z,102091.48
2018-09-27T04:43:06.387Z,102091.76
2018-09-27T04:44:10.142Z,102091.48
2018-09-27T04:45:13.536Z,102094.22
2018-09-27T04:46:16.972Z,102092.85
2018-09-27T04:47:20.404Z,102091.20
2018-09-27T04:48:24.295Z,102090.66
2018-09-27T04:49:27.741Z,102087.09
2018-09-27T04:50:31.194Z,102090.11
2018-09-27T04:51:34.661Z,102086.55
2018-09-27T04:52:38.085Z,102092.57
2018-09-27T04:53:41.531Z,102087.09
2018-09-27T04:54:45.255Z,102090.38
2018-09-27T04:55:48.713Z,102095.86
2018-09-27T04:56:52.186Z,102089.84
2018-09-27T04:57:55.724Z,102093.64
2018-09-27T04:58:59.157Z,102092.27
2018-09-27T05:00:02.672Z,102095.86
2018-09-27T05:01:06.072Z,102093.12
2018-09-27T05:02:09.481Z,102095.00
2018-09-27T05:03:13.123Z,102091.95
2018-09-27T05:04:16.878Z,102094.15
2018-09-27T05:05:20.353Z,102096.89
2018-09-27T05:06:23.816Z,102090.59
2018-09-27T05:07:27.321Z,102092.78
2018-09-27T05:08:30.770Z,102091.95
2018-09-27T05:09:34.233Z,102090.59
2018-09-27T05:10:37.658Z,102091.13
2018-09-27T05:11:41.256Z,102090.89
2018-09-27T05:12:44.695Z,102089.22
2018-09-27T05:13:48.146Z,102093.64
2018-09-27T05:14:51.606Z,102093.05
2018-09-27T05:15:55.041Z,102088.94
2018-09-27T05:16:58.595Z,102090.31
2018-09-27T05:18:02.162Z,102097.16
2018-09-27T05:19:05.665Z,102097.16
2018-09-27T05:20:09.122Z,102102.64
2018-09-27T05:21:12.558Z,102094.97
2018-09-27T05:22:16.102Z,102097.16
2018-09-27T05:23:19.571Z,102094.97
2018-09-27T05:24:23.130Z,102100.45
2018-09-27T05:25:26.772Z,102096.06
2018-09-27T05:26:30.181Z,102091.41
2018-09-27T05:27:33.853Z,102093.32
2018-09-27T05:28:37.342Z,102100.45
2018-09-27T05:29:40.826Z,102094.69
2018-09-27T05:30:44.369Z,102096.88
2018-09-27T05:31:47.839Z,102093.87
2018-09-27T05:32:51.250Z,102087.02
2018-09-27T05:33:54.732Z,102085.10
2018-09-27T05:34:58.190Z,102093.32
2018-09-27T05:36:01.946Z,102088.66
2018-09-27T05:37:05.666Z,102083.73
2018-09-27T05:38:09.094Z,102085.65
2018-09-27T05:39:12.645Z,102081.55
2018-09-27T05:40:16.137Z,102081.55
2018-09-27T05:41:19.630Z,102082.63
2018-09-27T05:42:23.303Z,102086.74
2018-09-27T05:43:26.718Z,102078.53
2018-09-27T05:44:30.166Z,102068.94
2018-09-27T05:45:33.655Z,102075.78
2018-09-27T05:46:37.100Z,102067.56
2018-09-27T05:47:40.560Z,102072.22
2018-09-27T05:48:44.145Z,102073.05
2018-09-27T05:49:47.588Z,102070.86
2018-09-27T05:50:51.066Z,102071.41
2018-09-27T05:51:54.525Z,102073.05
2018-09-27T05:52:57.946Z,102064.01
2018-09-27T05:54:01.821Z,102069.48
2018-09-27T05:55:05.332Z,102072.22
2018-09-27T05:56:08.788Z,102068.66
2018-09-27T05:57:12.205Z,102069.21
2018-09-27T05:58:15.702Z,102062.91
2018-09-27T05:59:19.209Z,102063.19
2018-09-27T06:00:22.657Z,102064.28
2018-09-27T06:01:26.102Z,102067.02
2018-09-27T06:02:29.528Z,102063.73
2018-09-27T06:03:33.014Z,102065.64
2018-09-27T06:04:36.385Z,102066.47
2018-09-27T06:05:39.826Z,102059.89
2018-09-27T06:06:43.287Z,102064.83
2018-09-27T06:07:46.805Z,102063.45
2018-09-27T06:08:50.491Z,102059.89
2018-09-27T06:09:54.022Z,102064.83
2018-09-27T06:10:57.441Z,102068.39
2018-09-27T06:12:00.888Z,102072.22
2018-09-27T06:13:04.342Z,102064.55
2018-09-27T06:14:08.439Z,102070.03
2018-09-27T06:15:12.003Z,102066.74
2018-09-27T06:16:15.684Z,102062.62
2018-09-27T06:17:19.132Z,102068.93
2018-09-27T06:18:22.606Z,102064.83
2018-09-27T06:19:26.321Z,102058.25
2018-09-27T06:20:29.637Z,102057.97
2018-09-27T06:21:33.172Z,102054.69
2018-09-27T06:22:36.628Z,102056.05
2018-09-27T06:23:40.210Z,102056.05
2018-09-27T06:24:43.702Z,102058.80
2018-09-27T06:25:47.192Z,102054.69
2018-09-27T06:26:50.672Z,102056.05
2018-09-27T06:27:54.231Z,102055.23
2018-09-27T06:28:57.654Z,102055.23
2018-09-27T06:30:01.099Z,102052.50
2018-09-27T06:31:04.574Z,102052.50
2018-09-27T06:32:08.064Z,102050.58
2018-09-27T06:33:11.503Z,102046.73
2018-09-27T06:34:14.973Z,102046.73
2018-09-27T06:35:18.717Z,102048.11
2018-09-27T06:36:22.167Z,102046.73
2018-09-27T06:37:25.587Z,102052.50
2018-09-27T06:38:29.245Z,102048.11
2018-09-27T06:39:32.768Z,102053.59
2018-09-27T06:40:36.205Z,102045.91
2018-09-27T06:41:39.682Z,102050.84
2018-09-27T06:42:43.234Z,102049.48
2018-09-27T06:43:46.692Z,102051.67
2018-09-27T06:44:50.142Z,102053.59
2018-09-27T06:45:53.556Z,102050.84
2018-09-27T06:46:56.986Z,102053.59
2018-09-27T06:48:00.442Z,102054.95
2018-09-27T06:49:04.036Z,102052.22
2018-09-27T06:50:07.949Z,102052.22
2018-09-27T06:51:11.422Z,102048.11
2018-09-27T06:52:14.878Z,102049.48
2018-09-27T06:53:18.345Z,102045.64
2018-09-27T06:54:21.869Z,102044.55
2018-09-27T06:55:25.524Z,102048.93
2018-09-27T06:56:29.144Z,102050.84
2018-09-27T06:57:32.580Z,102052.50
2018-09-27T06:58:36.007Z,102057.70
2018-09-27T06:59:39.427Z,102051.94
2018-09-27T07:00:42.941Z,102051.67
2018-09-27T07:01:46.359Z,102047.28
2018-09-27T07:02:49.774Z,102047.56
2018-09-27T07:03:53.224Z,102049.48
2018-09-27T07:04:56.670Z,102053.86
2018-09-27T07:06:00.469Z,102045.38
2018-09-27T07:07:03.957Z,102048.11
2018-09-27T07:08:07.333Z,102050.84
2018-09-27T07:09:12.683Z,102054.95
2018-09-27T07:10:16.263Z,102049.20
2018-09-27T07:11:19.667Z,102055.78
2018-09-27T07:12:23.233Z,102063.17
2018-09-27T07:13:26.586Z,102063.17
2018-09-27T07:14:30.083Z,102062.34
2018-09-27T07:15:33.607Z,102064.54
2018-09-27T07:16:37.043Z,102059.89
2018-09-27T07:17:40.818Z,102064.54
2018-09-27T07:18:44.347Z,102056.33
2018-09-27T07:19:47.781Z,102057.15
2018-09-27T07:20:51.267Z,102056.60
2018-09-27T07:21:54.888Z,102054.95
2018-09-27T07:22:58.287Z,102050.30
2018-09-27T07:24:01.765Z,102049.75
2018-09-27T07:25:05.288Z,102046.73
2018-09-27T07:26:08.698Z,102047.56
2018-09-27T07:27:12.156Z,102044.28
2018-09-27T07:28:15.598Z,102044.28
2018-09-27T07:29:19.061Z,102048.11
2018-09-27T07:30:22.515Z,102044.28
2018-09-27T07:31:26.192Z,102047.02
2018-09-27T07:32:29.755Z,102040.72
2018-09-27T07:33:33.298Z,102042.91
2018-09-27T07:34:36.795Z,102042.36
2018-09-27T07:35:40.243Z,102041.53
2018-09-27T07:36:44.006Z,102037.43
2018-09-27T07:37:47.797Z,102037.43
2018-09-27T07:38:51.263Z,102040.98
2018-09-27T07:39:54.663Z,102036.87
2018-09-27T07:40:58.159Z,102036.61
2018-09-27T07:42:01.572Z,102040.98
2018-09-27T07:43:06.355Z,102041.53
2018-09-27T07:44:10.846Z,102036.34
2018-09-27T07:45:14.305Z,102036.87
2018-09-27T07:46:17.818Z,102035.79
2018-09-27T07:47:21.399Z,102036.06
2018-09-27T07:48:24.836Z,102040.17
2018-09-27T07:49:28.313Z,102037.43
2018-09-27T07:50:32.017Z,102037.70
2018-09-27T07:51:35.484Z,102043.19
2018-09-27T07:52:38.962Z,102039.08
2018-09-27T07:53:42.349Z,102041.27
2018-09-27T07:54:45.803Z,102043.46
2018-09-27T07:55:49.325Z,102040.45
2018-09-27T07:56:52.816Z,102040.45
2018-09-27T07:57:56.243Z,102035.23
2018-09-27T07:58:59.912Z,102032.23
2018-09-27T08:00:03.363Z,102031.13
2018-09-27T08:01:06.899Z,102037.98
2018-09-27T08:02:10.314Z,102033.87
2018-09-27T08:03:13.894Z,102035.79
2018-09-27T08:04:17.461Z,102033.59
2018-09-27T08:05:20.860Z,102033.59
2018-09-27T08:06:24.342Z,102032.50
2018-09-27T08:07:29.158Z,102038.80
2018-09-27T08:08:32.684Z,102031.13
2018-09-27T08:09:36.118Z,102031.95
2018-09-27T08:10:39.550Z,102035.52
2018-09-27T08:11:43.066Z,102036.61
2018-09-27T08:12:46.551Z,102030.86
2018-09-27T08:13:50.001Z,102035.52
2018-09-27T08:14:53.480Z,102030.04
2018-09-27T08:15:56.928Z,102033.05
2018-09-27T08:17:00.590Z,102032.23
2018-09-27T08:18:04.002Z,102030.86
2018-09-27T08:19:07.461Z,102030.31
2018-09-27T08:20:10.989Z,102029.49
2018-09-27T08:21:14.895Z,102024.84
2018-09-27T08:22:18.296Z,102025.93
2018-09-27T08:23:21.691Z,102026.20
2018-09-27T08:24:25.149Z,102024.84
2018-09-27T08:25:28.613Z,102024.84
2018-09-27T08:26:32.054Z,102024.84
2018-09-27T08:27:35.631Z,102023.47
2018-09-27T08:28:39.161Z,102019.08
2018-09-27T08:29:42.629Z,102022.38
2018-09-27T08:30:46.173Z,102019.36
2018-09-27T08:31:49.692Z,102019.63
2018-09-27T08:32:53.158Z,102015.25
2018-09-27T08:33:56.731Z,102019.63
2018-09-27T08:35:01.745Z,102014.16
2018-09-27T08:36:05.236Z,102019.63
2018-09-27T08:37:09.004Z,102014.98
2018-09-27T08:38:12.907Z,102011.42
2018-09-27T08:39:16.840Z,102010.88
2018-09-27T08:40:20.456Z,102008.41
2018-09-27T08:41:25.237Z,102006.22
2018-09-27T08:42:30.375Z,102003.48
2018-09-27T08:43:34.147Z,102001.55
2018-09-27T08:44:41.470Z,102002.92
2018-09-27T08:45:45.373Z,102000.19
2018-09-27T08:46:49.077Z,101996.90
2018-09-27T08:47:52.566Z,101998.27
2018-09-27T08:48:56.118Z,101992.80
2018-09-27T08:49:59.558Z,102002.66
2018-09-27T08:51:03.223Z,101998.55
2018-09-27T08:52:06.746Z,101997.45
2018-09-27T08:53:10.256Z,101992.52
2018-09-27T08:54:13.823Z,101984.85
2018-09-27T08:55:17.315Z,101989.23
2018-09-27T08:56:20.833Z,101985.67
2018-09-27T08:57:24.372Z,101983.75
2018-09-27T08:58:27.852Z,101981.56
2018-09-27T08:59:31.366Z,101977.73
2018-09-27T09:00:34.763Z,101980.20
2018-09-27T09:01:38.349Z,101975.27
2018-09-27T09:02:41.829Z,101976.91
2018-09-27T09:03:45.332Z,101969.52
2018-09-27T09:04:49.907Z,101976.91
2018-09-27T09:05:53.477Z,101976.91
2018-09-27T09:06:56.909Z,101971.22
2018-09-27T09:08:00.346Z,101978.58
2018-09-27T09:09:05.344Z,101979.09
2018-09-27T09:10:08.898Z,101979.64
2018-09-27T09:11:12.387Z,101973.95
2018-09-27T09:12:16.267Z,101971.73
2018-09-27T09:13:19.653Z,101971.73
2018-09-27T09:14:23.074Z,101973.95
2018-09-27T09:15:26.585Z,101970.67
2018-09-27T09:16:29.983Z,101977.52
2018-09-27T09:17:34.347Z,101970.13
2018-09-27T09:18:37.790Z,101972.86
2018-09-27T09:19:41.288Z,101972.31
2018-09-27T09:20:44.981Z,101968.75
2018-09-27T09:21:48.456Z,101966.84
2018-09-27T09:22:51.929Z,101961.91
2018-09-27T09:23:55.436Z,101956.42
2018-09-27T09:24:58.844Z,101961.91
2018-09-27T09:26:02.400Z,101961.09
2018-09-27T09:27:06.147Z,101960.27
2018-09-27T09:28:09.608Z,101953.41
2018-09-27T09:29:13.112Z,101955.06
2018-09-27T09:30:16.849Z,101954.23
2018-09-27T09:31:20.294Z,101954.51
2018-09-27T09:32:23.703Z,101956.42
2018-09-27T09:33:27.129Z,101953.41
2018-09-27T09:34:30.530Z,101956.42
2018-09-27T09:35:34.010Z,101955.06
2018-09-27T09:36:37.478Z,101943.28
2018-09-27T09:37:40.937Z,101950.95
2018-09-27T09:38:44.376Z,101945.47
2018-09-27T09:39:47.837Z,101943.00
2018-09-27T09:40:51.251Z,101942.18
2018-09-27T09:41:54.719Z,101940.81
2018-09-27T09:42:58.471Z,101940.27
2018-09-27T09:44:01.928Z,101934.78
2018-09-27T09:45:05.509Z,101936.43
2018-09-27T09:46:08.992Z,101937.25
2018-09-27T09:47:12.417Z,101934.78
2018-09-27T09:48:15.966Z,101924.09
2018-09-27T09:49:19.408Z,101928.48
2018-09-27T09:50:22.846Z,101926.84
2018-09-27T09:51:26.545Z,101926.84
2018-09-27T09:52:29.994Z,101923.55
2018-09-27T09:53:33.533Z,101923.55
2018-09-27T09:54:36.952Z,101923.00
2018-09-27T09:55:40.389Z,101923.00
2018-09-27T09:56:43.957Z,101922.45
2018-09-27T09:57:47.398Z,101916.98
2018-09-27T09:58:50.857Z,101914.78
2018-09-27T09:59:54.297Z,101911.77
2018-09-27T10:00:57.730Z,101917.80
2018-09-27T10:02:01.201Z,101921.91
2018-09-27T10:03:04.837Z,101910.95
2018-09-27T10:04:08.278Z,101909.58
2018-09-27T10:05:11.731Z,101908.20
2018-09-27T10:06:15.184Z,101908.48
2018-09-27T10:07:18.630Z,101909.58
2018-09-27T10:08:22.099Z,101902.73
2018-09-27T10:09:25.532Z,101904.09
2018-09-27T10:10:28.959Z,101900.81
2018-09-27T10:11:32.409Z,101898.63
2018-09-27T10:12:35.825Z,101895.88
2018-09-27T10:13:39.304Z,101899.98
2018-09-27T10:14:42.713Z,101894.78
2018-09-27T10:15:46.169Z,101894.78
2018-09-27T10:16:49.590Z,101896.16
2018-09-27T10:17:53.002Z,101896.70
2018-09-27T10:18:56.444Z,101894.23
2018-09-27T10:19:59.912Z,101891.22
2018-09-27T10:21:03.370Z,101890.13
2018-09-27T10:22:07.154Z,101890.13
2018-09-27T10:23:10.961Z,101886.02
2018-09-27T10:24:14.566Z,101886.56
2018-09-27T10:25:18.013Z,101885.20
2018-09-27T10:26:21.434Z,101885.47
2018-09-27T10:27:24.846Z,101884.37
2018-09-27T10:28:28.251Z,101879.72
2018-09-27T10:29:31.703Z,101879.98
2018-09-27T10:30:35.120Z,101874.51
2018-09-27T10:31:38.746Z,101868.75
2018-09-27T10:32:42.161Z,101867.66
2018-09-27T10:33:45.611Z,101863.27
2018-09-27T10:34:49.154Z,101871.77
2018-09-27T10:35:53.094Z,101869.58
2018-09-27T10:36:56.534Z,101864.09
2018-09-27T10:38:00.098Z,101864.09
2018-09-27T10:39:04.630Z,101862.17
2018-09-27T10:40:08.118Z,101864.64
2018-09-27T10:41:11.555Z,101858.61
2018-09-27T10:42:14.951Z,101857.52
2018-09-27T10:43:18.390Z,101858.06
2018-09-27T10:44:21.840Z,101853.95
2018-09-27T10:45:25.304Z,101852.03
2018-09-27T10:46:28.796Z,101848.75
2018-09-27T10:47:32.256Z,101852.03
2018-09-27T10:48:35.726Z,101853.41
2018-09-27T10:49:39.127Z,101853.67
2018-09-27T10:50:42.615Z,101851.76
2018-09-27T10:51:46.042Z,101853.98
2018-09-27T10:52:49.461Z,101856.97
2018-09-27T10:53:52.920Z,101856.42
2018-09-27T10:54:56.362Z,101848.20
2018-09-27T10:55:59.972Z,101844.09
2018-09-27T10:57:03.450Z,101850.94
2018-09-27T10:58:07.771Z,101849.02
2018-09-27T10:59:11.279Z,101844.91
2018-09-27T11:00:21.845Z,101849.88
2018-09-27T11:01:25.272Z,101849.02
2018-09-27T11:02:28.900Z,101840.28
2018-09-27T11:03:32.315Z,101838.91
2018-09-27T11:04:35.730Z,101836.44
2018-09-27T11:05:39.261Z,101836.17
2018-09-27T11:06:42.629Z,101835.08
2018-09-27T11:07:46.042Z,101828.77
2018-09-27T11:08:49.585Z,101827.41
2018-09-27T11:09:53.050Z,101826.58
2018-09-27T11:10:56.468Z,101826.30
2018-09-27T11:11:59.926Z,101825.48
2018-09-27T11:13:03.390Z,101830.14
2018-09-27T11:14:06.859Z,101815.89
2018-09-27T11:15:10.361Z,101817.53
2018-09-27T11:16:14.682Z,101814.25
2018-09-27T11:17:18.254Z,101813.98
2018-09-27T11:18:21.697Z,101806.02
2018-09-27T11:19:25.146Z,101812.87
2018-09-27T11:20:28.690Z,101801.65
2018-09-27T11:21:32.136Z,101802.20
2018-09-27T11:22:35.566Z,101804.38
2018-09-27T11:23:39.015Z,101800.55
2018-09-27T11:24:42.433Z,101790.69
2018-09-27T11:25:45.865Z,101794.52
2018-09-27T11:26:49.287Z,101793.97
2018-09-27T11:27:52.718Z,101787.94
2018-09-27T11:29:01.334Z,101790.67
2018-09-27T11:30:10.066Z,101784.38
2018-09-27T11:31:18.815Z,101783.56
2018-09-27T11:32:27.676Z,101776.16
2018-09-27T11:33:31.124Z,101776.98
2018-09-27T11:34:34.814Z,101774.23
2018-09-27T11:35:38.264Z,101772.05
2018-09-27T11:36:41.750Z,101774.23
2018-09-27T11:37:45.985Z,101770.67
2018-09-27T11:38:49.486Z,101767.39
2018-09-27T11:39:52.968Z,101771.50
2018-09-27T11:40:56.401Z,101766.28
2018-09-27T11:41:59.981Z,101764.92
2018-09-27T11:43:03.398Z,101760.81
2018-09-27T11:44:07.286Z,101760.81
2018-09-27T11:45:11.126Z,101759.44
2018-09-27T11:46:14.984Z,101757.25
2018-09-27T11:47:18.529Z,101756.15
2018-09-27T11:48:21.981Z,101749.03
2018-09-27T11:49:25.524Z,101752.59
2018-09-27T11:50:28.871Z,101749.30
2018-09-27T11:51:32.304Z,101747.11
2018-09-27T11:52:35.769Z,101745.73
2018-09-27T11:53:39.210Z,101740.53
2018-09-27T11:54:42.681Z,101750.12
2018-09-27T11:55:46.079Z,101740.53
2018-09-27T11:56:49.529Z,101740.53
2018-09-27T11:57:53.051Z,101733.67
2018-09-27T11:58:56.752Z,101729.56
2018-09-27T12:00:00.254Z,101732.58
2018-09-27T12:01:03.884Z,101730.66
2018-09-27T12:02:07.322Z,101725.45
2018-09-27T12:03:10.738Z,101723.53
2018-09-27T12:04:14.183Z,101721.62
2018-09-27T12:05:17.611Z,101722.98